createdAt,value
2023-01-08T00:01:42.439Z,65.20
2023-01-08T00:04:48.173Z,65.41
2023-01-08T00:07:54.463Z,65.97
2023-01-08T00:11:00.210Z,65.65
2023-01-08T00:14:09.567Z,65.68
2023-01-08T00:17:15.171Z,65.17
2023-01-08T00:20:21.466Z,65.74
2023-01-08T00:23:26.992Z,65.08
2023-01-08T00:26:33.377Z,65.73
2023-01-08T00:29:41.585Z,64.85
2023-01-08T00:32:47.816Z,65.50
2023-01-08T00:35:53.283Z,65.24
2023-01-08T00:38:59.632Z,64.79
2023-01-08T00:42:05.153Z,65.35
2023-01-08T00:45:16.219Z,64.79
2023-01-08T00:48:22.594Z,64.59
2023-01-08T00:51:29.036Z,65.48
2023-01-08T00:54:34.504Z,65.01
2023-01-08T00:57:42.845Z,64.79
2023-01-08T01:00:51.368Z,64.17
2023-01-08T01:03:57.829Z,64.35
2023-01-08T01:07:03.225Z,64.57
2023-01-08T01:10:10.952Z,65.65
2023-01-08T01:13:16.354Z,65.73
2023-01-08T01:16:26.002Z,65.68
2023-01-08T01:19:31.728Z,65.28
2023-01-08T01:22:38.724Z,66.05
2023-01-08T01:25:45.815Z,65.42
2023-01-08T01:28:55.741Z,65.34
2023-01-08T01:32:03.971Z,65.06
2023-01-08T01:35:11.396Z,66.10
2023-01-08T01:38:16.747Z,67.00
2023-01-08T01:41:30.438Z,66.99
2023-01-08T01:44:46.587Z,66.04
2023-01-08T01:48:03.086Z,66.79
2023-01-08T01:51:08.982Z,66.73
2023-01-08T01:54:16.479Z,66.04
2023-01-08T01:57:22.523Z,67.43
2023-01-08T02:00:31.507Z,67.30
2023-01-08T02:03:42.782Z,67.45
2023-01-08T02:07:03.059Z,66.18
2023-01-08T02:10:20.061Z,66.81
2023-01-08T02:13:35.111Z,66.53
2023-01-08T02:16:51.207Z,67.63
2023-01-08T02:20:12.907Z,67.03
2023-01-08T02:23:33.515Z,67.13
2023-01-08T02:26:43.974Z,66.17
2023-01-08T02:29:53.544Z,67.21
2023-01-08T02:32:59.777Z,67.06
2023-01-08T02:36:43.027Z,66.40
2023-01-08T02:40:20.743Z,66.28
2023-01-08T02:43:41.862Z,66.52
2023-01-08T02:46:48.559Z,67.33
2023-01-08T02:50:09.013Z,66.10
2023-01-08T02:53:22.959Z,66.39
2023-01-08T02:56:36.334Z,66.54
2023-01-08T02:59:51.665Z,66.33
2023-01-08T03:03:11.616Z,66.78
2023-01-08T03:06:24.114Z,66.99
2023-01-08T03:09:29.716Z,66.53
2023-01-08T03:12:53.653Z,66.55
2023-01-08T03:16:12.783Z,67.47
2023-01-08T03:19:26.746Z,66.54
2023-01-08T03:22:38.885Z,66.87
2023-01-08T03:25:50.039Z,67.01
2023-01-08T03:29:00.452Z,66.46
2023-01-08T03:32:19.363Z,66.47
2023-01-08T03:35:30.578Z,66.49
2023-01-08T03:38:45.509Z,66.46
2023-01-08T03:41:54.543Z,65.91
2023-01-08T03:45:01.106Z,66.41
2023-01-08T03:48:12.920Z,67.16
2023-01-08T03:51:19.296Z,66.67
2023-01-08T03:54:33.502Z,66.10
2023-01-08T03:57:39.824Z,67.74
2023-01-08T04:00:45.466Z,67.19
2023-01-08T04:03:54.544Z,66.98
2023-01-08T04:07:00.166Z,67.02
2023-01-08T04:10:07.007Z,67.26
2023-01-08T04:13:12.373Z,66.30
2023-01-08T04:16:19.023Z,66.57
2023-01-08T04:19:27.890Z,66.85
2023-01-08T04:22:34.129Z,66.38
2023-01-08T04:25:41.350Z,66.25
2023-01-08T04:28:47.619Z,66.23
2023-01-08T04:31:53.049Z,66.83
2023-01-08T04:35:02.282Z,65.68
2023-01-08T04:38:09.069Z,65.77
2023-01-08T04:41:18.529Z,65.75
2023-01-08T04:44:23.915Z,65.83
2023-01-08T04:47:30.134Z,66.56
2023-01-08T04:50:38.597Z,66.38
2023-01-08T04:53:45.756Z,66.26
2023-01-08T04:56:54.744Z,66.57
2023-01-08T05:00:00.976Z,65.35
2023-01-08T05:03:06.735Z,65.55
2023-01-08T05:06:15.850Z,65.83
2023-01-08T05:09:21.490Z,66.60
2023-01-08T05:12:27.755Z,65.67
2023-01-08T05:15:33.342Z,65.95
2023-01-08T05:18:39.693Z,65.85
2023-01-08T05:21:47.936Z,66.07
2023-01-08T05:24:54.152Z,66.63
2023-01-08T05:27:59.531Z,66.73
2023-01-08T05:31:05.872Z,66.19
2023-01-08T05:34:11.338Z,65.65
2023-01-08T05:37:20.376Z,65.52
2023-01-08T05:40:25.893Z,66.20
2023-01-08T05:43:32.853Z,66.49
2023-01-08T05:46:38.351Z,65.83
2023-01-08T05:49:44.577Z,65.39
2023-01-08T05:52:52.723Z,65.41
2023-01-08T05:56:03.854Z,65.58
2023-01-08T05:59:09.349Z,65.99
2023-01-08T06:02:15.713Z,66.09
2023-01-08T06:05:21.190Z,66.72
2023-01-08T06:08:31.656Z,66.53
2023-01-08T06:11:37.026Z,66.66
2023-01-08T06:14:43.231Z,66.07
2023-01-08T06:17:48.683Z,67.07
2023-01-08T06:20:54.947Z,66.42
2023-01-08T06:24:03.071Z,66.22
2023-01-08T06:27:09.386Z,66.23
2023-01-08T06:30:15.287Z,66.89
2023-01-08T06:33:22.326Z,66.90
2023-01-08T06:36:28.356Z,66.71
2023-01-08T06:39:37.810Z,66.21
2023-01-08T06:42:44.316Z,66.66
2023-01-08T06:45:58.553Z,66.13
2023-01-08T06:49:04.015Z,66.01
2023-01-08T06:52:10.274Z,66.72
2023-01-08T06:55:18.681Z,67.30
2023-01-08T06:58:25.112Z,66.43
2023-01-08T07:01:30.595Z,67.37
2023-01-08T07:04:36.995Z,66.71
2023-01-08T07:07:42.370Z,67.71
2023-01-08T07:10:51.561Z,67.70
2023-01-08T07:13:58.801Z,67.53
2023-01-08T07:17:05.121Z,66.96
2023-01-08T07:20:12.673Z,67.80
2023-01-08T07:23:18.998Z,67.18
2023-01-08T07:26:27.202Z,67.65
2023-01-08T07:29:33.427Z,66.83
2023-01-08T07:32:38.932Z,66.91
2023-01-08T07:35:45.124Z,67.44
2023-01-08T07:38:50.531Z,66.76
2023-01-08T07:41:59.755Z,66.24
2023-01-08T07:45:05.454Z,66.35
2023-01-08T07:48:15.935Z,66.29
2023-01-08T07:51:22.143Z,66.26
2023-01-08T07:54:28.463Z,66.62
2023-01-08T07:57:36.651Z,65.12
2023-01-08T08:00:44.009Z,65.72
2023-01-08T08:03:49.461Z,66.09
2023-01-08T08:07:00.007Z,65.97
2023-01-08T08:10:05.954Z,65.33
2023-01-08T08:13:16.143Z,65.65
2023-01-08T08:16:21.609Z,64.99
2023-01-08T08:19:27.882Z,65.60
2023-01-08T08:22:33.489Z,64.65
2023-01-08T08:25:43.703Z,64.67
2023-01-08T08:28:55.132Z,64.30
2023-01-08T08:32:01.627Z,64.11
2023-01-08T08:35:08.625Z,64.29
2023-01-08T08:38:15.139Z,63.98
2023-01-08T08:41:20.744Z,64.80
2023-01-08T08:44:37.128Z,63.91
2023-01-08T08:47:50.976Z,63.83
2023-01-08T08:51:03.232Z,64.59
2023-01-08T08:54:08.868Z,63.86
2023-01-08T08:57:15.736Z,64.15
2023-01-08T09:00:24.268Z,63.81
2023-01-08T09:03:30.874Z,64.69
2023-01-08T09:06:36.530Z,64.64
2023-01-08T09:09:42.748Z,65.07
2023-01-08T09:12:48.187Z,64.24
2023-01-08T09:15:57.317Z,64.25
2023-01-08T09:19:02.756Z,64.45
2023-01-08T09:22:09.190Z,64.76
2023-01-08T09:25:14.632Z,64.31
2023-01-08T09:28:21.039Z,64.92
2023-01-08T09:31:29.995Z,64.66
2023-01-08T09:34:36.446Z,64.71
2023-01-08T09:37:42.161Z,63.37
2023-01-08T09:41:01.339Z,63.70
2023-01-08T09:44:10.238Z,63.53
2023-01-08T09:47:31.396Z,64.52
2023-01-08T09:50:38.185Z,63.42
2023-01-08T09:53:46.817Z,64.07
2023-01-08T09:56:52.574Z,63.64
2023-01-08T09:59:58.968Z,63.38
2023-01-08T10:03:07.734Z,63.20
2023-01-08T10:06:17.458Z,63.04
2023-01-08T10:09:30.432Z,62.71
2023-01-08T10:12:37.403Z,62.46
2023-01-08T10:15:44.811Z,62.63
2023-01-08T10:18:53.927Z,62.08
2023-01-08T10:22:00.958Z,61.77
2023-01-08T10:25:12.828Z,61.22
2023-01-08T10:28:25.146Z,61.06
2023-01-08T10:31:31.539Z,61.09
2023-01-08T10:34:50.349Z,60.82
2023-01-08T10:37:57.616Z,60.54
2023-01-08T10:41:12.189Z,60.75
2023-01-08T10:44:22.312Z,60.27
2023-01-08T10:47:34.024Z,60.43
2023-01-08T10:50:43.169Z,60.06
2023-01-08T10:53:49.055Z,60.32
2023-01-08T10:56:55.421Z,59.72
2023-01-08T11:00:00.964Z,59.56
2023-01-08T11:03:13.123Z,59.41
2023-01-08T11:06:27.754Z,58.87
2023-01-08T11:09:41.433Z,59.00
2023-01-08T11:12:48.329Z,58.80
2023-01-08T11:16:07.555Z,58.51
2023-01-08T11:19:23.559Z,59.25
2023-01-08T11:22:32.637Z,58.87
2023-01-08T11:25:39.933Z,58.71
2023-01-08T11:29:00.086Z,58.93
2023-01-08T11:32:28.365Z,58.76
2023-01-08T11:35:42.342Z,59.05
2023-01-08T11:38:50.608Z,59.07
2023-01-08T11:42:40.226Z,58.95
2023-01-08T11:46:31.682Z,59.06
2023-01-08T11:50:07.801Z,58.90
2023-01-08T11:53:32.134Z,59.17
2023-01-08T11:57:14.708Z,59.03
2023-01-08T12:00:55.679Z,59.15
2023-01-08T12:04:43.305Z,59.17
2023-01-08T12:08:05.101Z,58.98
2023-01-08T12:11:25.877Z,59.06
2023-01-08T12:15:07.889Z,59.24
2023-01-08T12:19:07.552Z,59.08
2023-01-08T12:22:38.317Z,59.12
2023-01-08T12:26:21.806Z,59.08
2023-01-08T12:29:56.908Z,59.20
2023-01-08T12:33:15.572Z,59.11
2023-01-08T12:36:30.056Z,59.03
2023-01-08T12:39:50.936Z,58.78
2023-01-08T12:43:01.026Z,59.29
2023-01-08T12:46:18.185Z,58.66
2023-01-08T12:49:44.396Z,58.32
2023-01-08T12:53:05.138Z,57.67
2023-01-08T12:56:24.434Z,57.56
2023-01-08T12:59:45.764Z,57.58
2023-01-08T13:03:04.811Z,58.16
2023-01-08T13:06:17.085Z,58.17
2023-01-08T13:09:29.348Z,57.93
2023-01-08T13:12:43.802Z,58.27
2023-01-08T13:15:49.382Z,58.07
2023-01-08T13:19:02.792Z,58.18
2023-01-08T13:22:08.347Z,57.63
2023-01-08T13:25:36.779Z,58.10
2023-01-08T13:28:48.579Z,58.03
2023-01-08T13:31:55.760Z,58.05
2023-01-08T13:35:27.129Z,58.13
2023-01-08T13:38:33.443Z,58.13
2023-01-08T13:41:44.547Z,58.01
2023-01-08T13:44:55.198Z,57.75
2023-01-08T13:51:44.551Z,57.98
2023-01-08T13:54:51.733Z,57.78
2023-01-08T13:58:04.861Z,57.97
2023-01-08T14:01:14.538Z,57.63
2023-01-08T14:04:24.731Z,58.08
2023-01-08T14:07:33.000Z,58.17
2023-01-08T14:10:40.431Z,58.18
2023-01-08T14:13:47.417Z,58.44
2023-01-08T14:16:57.314Z,58.52
2023-01-08T14:20:05.566Z,58.76
2023-01-08T14:23:26.693Z,58.62
2023-01-08T14:26:37.524Z,58.38
2023-01-08T14:29:48.875Z,58.60
2023-01-08T14:32:55.316Z,58.74
2023-01-08T14:36:04.691Z,58.65
2023-01-08T14:39:26.960Z,58.61
2023-01-08T14:42:47.520Z,58.93
2023-01-08T14:45:57.191Z,58.98
2023-01-08T14:49:03.710Z,58.56
2023-01-08T14:52:18.647Z,58.90
2023-01-08T14:55:32.201Z,59.37
2023-01-08T14:58:46.467Z,59.17
2023-01-08T15:01:59.634Z,59.44
2023-01-08T15:05:20.821Z,59.54
2023-01-08T15:08:30.865Z,59.69
2023-01-08T15:11:55.338Z,59.75
2023-01-08T15:15:13.426Z,59.98
2023-01-08T15:18:18.943Z,60.18
2023-01-08T15:21:27.725Z,60.18
2023-01-08T15:24:39.418Z,60.61
2023-01-08T15:27:57.971Z,60.98
2023-01-08T15:31:03.478Z,61.18
2023-01-08T15:34:12.218Z,61.13
2023-01-08T15:37:18.987Z,61.00
2023-01-08T15:40:25.398Z,61.85
2023-01-08T15:43:33.586Z,62.01
2023-01-08T15:46:39.917Z,61.68
2023-01-08T15:49:45.516Z,61.95
2023-01-08T15:52:52.201Z,62.38
2023-01-08T15:55:57.539Z,62.06
2023-01-08T15:59:06.723Z,62.28
2023-01-08T16:02:16.024Z,62.03
2023-01-08T16:05:26.516Z,62.08
2023-01-08T16:08:31.859Z,62.77
2023-01-08T16:11:38.174Z,62.68
2023-01-08T16:14:46.389Z,62.38
2023-01-08T16:17:52.611Z,62.49
2023-01-08T16:21:04.240Z,62.84
2023-01-08T16:24:15.486Z,62.67
2023-01-08T16:27:20.883Z,63.16
2023-01-08T16:30:30.851Z,62.90
2023-01-08T16:33:36.520Z,62.80
2023-01-08T16:36:42.927Z,63.12
2023-01-08T16:39:48.320Z,63.41
2023-01-08T16:42:54.566Z,63.04
2023-01-08T16:46:04.511Z,63.17
2023-01-08T16:49:11.293Z,63.76
2023-01-08T16:52:16.713Z,63.98
2023-01-08T16:55:22.980Z,64.15
2023-01-08T16:58:29.607Z,64.02
2023-01-08T17:01:38.922Z,63.40
2023-01-08T17:04:44.379Z,64.29
2023-01-08T17:07:55.721Z,63.63
2023-01-08T17:11:01.120Z,63.60
2023-01-08T17:14:07.451Z,64.26
2023-01-08T17:17:15.721Z,63.29
2023-01-08T17:20:22.231Z,64.28
2023-01-08T17:23:29.038Z,63.83
2023-01-08T17:26:35.424Z,63.38
2023-01-08T17:29:40.895Z,63.13
2023-01-08T17:32:50.014Z,63.33
2023-01-08T17:35:55.630Z,62.97
2023-01-08T17:39:02.123Z,63.32
2023-01-08T17:42:28.704Z,63.36
2023-01-08T17:45:35.169Z,63.03
2023-01-08T17:48:48.458Z,63.32
2023-01-08T17:51:54.760Z,63.01
2023-01-08T17:55:00.415Z,62.70
2023-01-08T17:58:07.057Z,63.15
2023-01-08T18:01:13.868Z,63.24
2023-01-08T18:04:22.950Z,62.83
2023-01-08T18:07:28.518Z,62.49
2023-01-08T18:10:35.219Z,62.59
2023-01-08T18:13:41.388Z,63.01
2023-01-08T18:16:49.711Z,63.09
2023-01-08T18:19:58.190Z,62.70
2023-01-08T18:23:04.447Z,62.64
2023-01-08T18:26:12.753Z,62.16
2023-01-08T18:29:19.085Z,62.13
2023-01-08T18:32:26.313Z,62.32
2023-01-08T18:35:36.077Z,61.92
2023-01-08T18:38:44.420Z,61.78
2023-01-08T18:42:06.859Z,61.41
2023-01-08T18:45:15.290Z,61.57
2023-01-08T18:48:21.544Z,61.39
2023-01-08T18:51:30.688Z,61.66
2023-01-08T18:54:37.105Z,61.67
2023-01-08T18:57:44.820Z,61.38
2023-01-08T19:00:51.147Z,61.41
2023-01-08T19:03:58.613Z,61.05
2023-01-08T19:07:07.750Z,61.56
2023-01-08T19:10:15.249Z,61.78
2023-01-08T19:13:21.762Z,61.41
2023-01-08T19:16:28.497Z,62.22
2023-01-08T19:19:34.861Z,61.32
2023-01-08T19:22:43.045Z,61.92
2023-01-08T19:25:49.283Z,62.03
2023-01-08T19:28:54.935Z,62.26
2023-01-08T19:32:01.220Z,61.99
2023-01-08T19:35:06.922Z,62.36
2023-01-08T19:38:15.943Z,62.21
2023-01-08T19:41:34.074Z,62.08
2023-01-08T19:44:40.574Z,62.30
2023-01-08T19:47:46.209Z,62.31
2023-01-08T19:50:52.585Z,62.48
2023-01-08T19:54:02.383Z,62.14
2023-01-08T19:57:08.816Z,61.50
2023-01-08T20:00:16.256Z,62.15
2023-01-08T20:03:24.555Z,61.82
2023-01-08T20:06:30.580Z,62.12
2023-01-08T20:09:40.435Z,61.92
2023-01-08T20:12:45.854Z,61.68
2023-01-08T20:15:59.438Z,62.37
2023-01-08T20:19:06.959Z,61.59
2023-01-08T20:22:13.365Z,61.83
2023-01-08T20:25:21.740Z,61.69
2023-01-08T20:28:27.999Z,61.89
2023-01-08T20:31:35.180Z,61.66
2023-01-08T20:34:42.433Z,61.86
2023-01-08T20:37:47.939Z,62.22
2023-01-08T20:40:57.517Z,61.76
2023-01-08T20:44:06.973Z,61.53
2023-01-08T20:47:13.615Z,61.66
2023-01-08T20:50:20.502Z,61.49
2023-01-08T20:53:29.551Z,61.54
2023-01-08T20:56:37.837Z,61.15
2023-01-08T20:59:44.312Z,61.00
2023-01-08T21:02:49.669Z,61.28
2023-01-08T21:05:56.430Z,61.11
2023-01-08T21:09:06.823Z,61.38
2023-01-08T21:12:15.911Z,61.03
2023-01-08T21:15:22.130Z,61.29
2023-01-08T21:18:28.608Z,61.01
2023-01-08T21:21:39.998Z,61.05
2023-01-08T21:24:47.001Z,61.36
2023-01-08T21:27:55.737Z,60.96
2023-01-08T21:31:09.071Z,61.08
2023-01-08T21:34:14.557Z,61.00
2023-01-08T21:37:20.937Z,61.02
2023-01-08T21:40:26.317Z,60.54
2023-01-08T21:44:03.120Z,60.44
2023-01-08T21:47:12.930Z,60.99
2023-01-08T21:50:19.986Z,60.98
2023-01-08T21:53:31.487Z,60.56
2023-01-08T21:56:37.752Z,60.71
2023-01-08T21:59:46.393Z,60.45
2023-01-08T22:02:52.857Z,60.36
2023-01-08T22:06:02.927Z,60.43
2023-01-08T22:09:09.214Z,60.39
2023-01-08T22:12:15.119Z,60.26
2023-01-08T22:15:24.144Z,60.00
2023-01-08T22:18:29.526Z,60.33
2023-01-08T22:21:35.822Z,59.96
2023-01-08T22:24:42.199Z,60.20
2023-01-08T22:27:51.423Z,59.85
2023-01-08T22:30:59.680Z,60.05
2023-01-08T22:34:05.968Z,60.11
2023-01-08T22:37:11.781Z,60.11
2023-01-08T22:40:18.298Z,60.42
2023-01-08T22:43:23.809Z,60.17
2023-01-08T22:46:33.297Z,59.92
2023-01-08T22:49:39.353Z,59.87
2023-01-08T22:52:45.871Z,59.91
2023-01-08T22:55:51.786Z,59.93
2023-01-08T22:58:58.536Z,59.78
2023-01-08T23:02:06.897Z,59.23
2023-01-08T23:05:13.404Z,60.22
2023-01-08T23:08:18.854Z,60.04
2023-01-08T23:11:26.873Z,60.10
2023-01-08T23:14:32.391Z,59.92
2023-01-08T23:17:51.591Z,60.10
2023-01-08T23:21:05.178Z,59.96
2023-01-08T23:24:16.238Z,60.20
2023-01-08T23:27:21.623Z,59.99
2023-01-08T23:30:31.523Z,60.48
2023-01-08T23:33:40.165Z,59.95
2023-01-08T23:36:46.774Z,60.60
2023-01-08T23:39:52.228Z,60.50
2023-01-08T23:42:58.623Z,60.26
2023-01-08T23:46:06.701Z,60.41
2023-01-08T23:49:16.023Z,61.23
2023-01-08T23:52:21.595Z,60.97
2023-01-08T23:55:28.084Z,60.76
2023-01-08T23:58:33.526Z,61.11
